createdAt,value
2023-01-18T00:01:10.578Z,4.30
2023-01-18T00:03:39.516Z,3.95
2023-01-18T00:06:10.053Z,3.95
2023-01-18T00:08:39.395Z,3.63
2023-01-18T00:11:16.020Z,4.07
2023-01-18T00:13:44.157Z,4.18
2023-01-18T00:16:13.793Z,4.45
2023-01-18T00:18:41.381Z,5.03
2023-01-18T00:21:11.459Z,4.32
2023-01-18T00:23:39.307Z,4.68
2023-01-18T00:26:11.898Z,4.35
2023-01-18T00:28:40.508Z,4.10
2023-01-18T00:31:12.794Z,3.60
2023-01-18T00:33:43.892Z,4.55
2023-01-18T00:36:12.234Z,3.83
2023-01-18T00:38:39.907Z,4.25
2023-01-18T00:41:07.418Z,4.53
2023-01-18T00:43:40.875Z,4.18
2023-01-18T00:48:41.227Z,4.43
2023-01-18T00:51:11.723Z,4.35
2023-01-18T00:53:39.731Z,4.65
2023-01-18T00:56:12.439Z,4.05
2023-01-18T00:58:39.986Z,4.60
2023-01-18T01:01:08.573Z,4.25
2023-01-18T01:03:56.020Z,4.45
2023-01-18T01:06:45.453Z,4.43
2023-01-18T01:09:25.415Z,4.72
2023-01-18T01:12:13.201Z,4.80
2023-01-18T01:15:02.135Z,5.07
2023-01-18T01:17:49.931Z,4.82
2023-01-18T01:20:36.250Z,5.15
2023-01-18T01:23:37.433Z,5.07
2023-01-18T01:26:11.134Z,4.45
2023-01-18T01:28:40.033Z,5.20
2023-01-18T01:31:09.560Z,4.50
2023-01-18T01:33:37.859Z,4.70
2023-01-18T01:36:08.964Z,4.45
2023-01-18T01:38:36.539Z,4.53
2023-01-18T01:41:16.360Z,5.00
2023-01-18T01:43:53.218Z,4.40
2023-01-18T01:46:39.022Z,4.88
2023-01-18T01:49:09.301Z,4.28
2023-01-18T01:51:41.593Z,4.47
2023-01-18T01:54:23.390Z,5.07
2023-01-18T01:56:55.156Z,4.75
2023-01-18T01:59:23.831Z,4.82
2023-01-18T02:01:51.399Z,5.35
2023-01-18T02:04:19.397Z,4.80
2023-01-18T02:06:46.954Z,5.60
2023-01-18T02:09:16.313Z,4.90
2023-01-18T02:11:44.117Z,4.65
2023-01-18T02:14:15.851Z,4.40
2023-01-18T02:17:34.479Z,3.95
2023-01-18T02:20:34.427Z,4.05
2023-01-18T02:23:21.562Z,3.63
2023-01-18T02:26:13.268Z,3.80
2023-01-18T02:28:45.841Z,4.25
2023-01-18T02:31:26.067Z,3.83
2023-01-18T02:34:18.557Z,3.60
2023-01-18T02:37:08.982Z,3.42
2023-01-18T02:40:02.601Z,3.95
2023-01-18T02:42:50.381Z,3.78
2023-01-18T02:46:06.533Z,4.15
2023-01-18T02:48:43.229Z,4.03
2023-01-18T02:51:11.337Z,3.97
2023-01-18T02:53:42.462Z,4.28
2023-01-18T02:56:24.892Z,3.97
2023-01-18T02:58:58.912Z,4.43
2023-01-18T03:01:38.394Z,4.97
2023-01-18T03:04:22.244Z,4.40
2023-01-18T03:06:58.811Z,3.90
2023-01-18T03:09:27.446Z,4.97
2023-01-18T03:12:46.258Z,4.50
2023-01-18T03:15:43.013Z,4.90
2023-01-18T03:18:24.373Z,5.05
2023-01-18T03:20:55.939Z,6.00
2023-01-18T03:23:38.146Z,5.78
2023-01-18T03:26:11.326Z,6.30
2023-01-18T03:29:03.869Z,5.38
2023-01-18T03:31:57.735Z,5.40
2023-01-18T03:34:25.175Z,5.75
2023-01-18T03:36:55.773Z,5.68
2023-01-18T03:39:34.400Z,5.80
2023-01-18T03:42:09.060Z,6.07
2023-01-18T03:44:43.847Z,5.75
2023-01-18T03:47:11.299Z,5.78
2023-01-18T03:49:38.971Z,5.70
2023-01-18T03:52:24.645Z,6.28
2023-01-18T03:55:04.243Z,6.28
2023-01-18T03:57:43.196Z,5.95
2023-01-18T04:00:11.777Z,6.72
2023-01-18T04:02:45.017Z,7.07
2023-01-18T04:05:13.129Z,6.60
2023-01-18T04:07:40.649Z,6.97
2023-01-18T04:10:08.864Z,7.28
2023-01-18T04:12:36.677Z,6.88
2023-01-18T04:15:04.766Z,6.68
2023-01-18T04:17:32.275Z,6.22
2023-01-18T04:19:59.768Z,6.55
2023-01-18T04:22:27.195Z,6.65
2023-01-18T04:24:54.727Z,7.93
2023-01-18T04:27:24.290Z,8.38
2023-01-18T04:29:52.505Z,10.55
2023-01-18T04:32:19.921Z,9.60
2023-01-18T04:34:47.488Z,9.23
2023-01-18T04:37:14.933Z,8.88
2023-01-18T04:39:42.397Z,8.10
2023-01-18T04:42:09.829Z,8.20
2023-01-18T04:44:37.507Z,7.80
2023-01-18T04:47:05.016Z,8.27
2023-01-18T04:49:32.534Z,9.57
2023-01-18T04:51:59.965Z,9.40
2023-01-18T04:54:28.311Z,9.25
2023-01-18T04:56:55.766Z,8.38
2023-01-18T04:59:23.343Z,9.80
2023-01-18T05:01:50.767Z,8.32
2023-01-18T05:04:18.398Z,8.85
2023-01-18T05:06:48.663Z,8.50
2023-01-18T05:09:16.209Z,8.95
2023-01-18T05:11:43.710Z,10.27
2023-01-18T05:14:11.269Z,10.20
2023-01-18T05:16:38.804Z,10.90
2023-01-18T05:19:06.306Z,12.07
2023-01-18T05:21:33.738Z,11.18
2023-01-18T05:24:01.442Z,11.50
2023-01-18T05:26:28.842Z,11.88
2023-01-18T05:28:57.844Z,11.07
2023-01-18T05:31:25.913Z,10.88
2023-01-18T05:33:53.660Z,11.70
2023-01-18T05:36:21.120Z,11.25
2023-01-18T05:38:48.797Z,12.18
2023-01-18T05:41:16.377Z,11.00
2023-01-18T05:43:44.033Z,11.00
2023-01-18T05:46:11.567Z,10.25
2023-01-18T05:48:39.137Z,10.25
2023-01-18T05:51:09.183Z,10.80
2023-01-18T05:53:37.476Z,10.30
2023-01-18T05:56:06.800Z,11.25
2023-01-18T05:58:34.760Z,10.48
2023-01-18T06:01:02.311Z,10.70
2023-01-18T06:03:29.898Z,11.40
2023-01-18T06:05:59.060Z,11.98
2023-01-18T06:08:26.570Z,11.32
2023-01-18T06:10:58.835Z,12.65
2023-01-18T06:13:28.576Z,12.23
2023-01-18T06:15:58.147Z,11.52
2023-01-18T06:18:27.878Z,12.40
2023-01-18T06:21:01.515Z,12.40
2023-01-18T06:23:30.565Z,12.32
2023-01-18T06:25:58.650Z,12.13
2023-01-18T06:28:26.852Z,13.18
2023-01-18T06:30:56.520Z,13.98
2023-01-18T06:33:24.807Z,14.65
2023-01-18T06:35:52.749Z,14.98
2023-01-18T06:38:20.859Z,15.63
2023-01-18T06:40:48.291Z,13.57
2023-01-18T06:43:16.139Z,14.27
2023-01-18T06:45:43.816Z,14.93
2023-01-18T06:48:11.332Z,14.02
2023-01-18T06:50:38.829Z,14.63
2023-01-18T06:53:06.399Z,14.90
2023-01-18T06:55:34.777Z,13.95
2023-01-18T06:58:02.810Z,14.50
2023-01-18T07:00:30.223Z,14.25
2023-01-18T07:02:58.866Z,13.68
2023-01-18T07:05:26.544Z,14.85
2023-01-18T07:07:54.144Z,16.80
2023-01-18T07:10:21.608Z,15.07
2023-01-18T07:12:51.064Z,15.90
2023-01-18T07:15:22.858Z,16.15
2023-01-18T07:17:51.062Z,15.93
2023-01-18T07:20:20.047Z,15.18
2023-01-18T07:22:53.914Z,15.40
2023-01-18T07:25:21.521Z,16.05
2023-01-18T07:27:49.345Z,16.08
2023-01-18T07:30:17.580Z,16.30
2023-01-18T07:32:51.325Z,15.48
2023-01-18T07:35:22.318Z,14.68
2023-01-18T07:37:53.448Z,15.60
2023-01-18T07:40:22.033Z,16.73
2023-01-18T07:42:56.384Z,14.93
2023-01-18T07:45:24.328Z,14.57
2023-01-18T07:47:53.528Z,14.43
2023-01-18T07:50:24.070Z,14.05
2023-01-18T07:52:51.596Z,15.13
2023-01-18T07:55:21.239Z,15.57
2023-01-18T07:57:48.792Z,13.63
2023-01-18T08:00:17.451Z,15.68
2023-01-18T08:02:45.135Z,16.23
2023-01-18T08:05:12.689Z,16.17
2023-01-18T08:07:40.396Z,16.42
2023-01-18T08:10:08.528Z,16.17
2023-01-18T08:12:36.047Z,16.98
2023-01-18T08:15:04.687Z,17.95
2023-01-18T08:17:32.128Z,15.95
2023-01-18T08:19:59.543Z,16.95
2023-01-18T08:22:27.227Z,15.93
2023-01-18T08:24:54.789Z,15.77
2023-01-18T08:27:22.699Z,16.08
2023-01-18T08:29:50.225Z,15.07
2023-01-18T08:32:17.810Z,17.17
2023-01-18T08:34:45.256Z,16.60
2023-01-18T08:37:12.803Z,17.13
2023-01-18T08:39:40.290Z,15.98
2023-01-18T08:42:07.834Z,17.65
2023-01-18T08:44:35.280Z,17.08
2023-01-18T08:47:03.416Z,18.55
2023-01-18T08:49:32.825Z,18.70
2023-01-18T08:52:00.395Z,18.35
2023-01-18T08:54:27.889Z,17.85
2023-01-18T08:56:55.421Z,18.20
2023-01-18T08:59:23.889Z,17.42
2023-01-18T09:01:51.485Z,18.65
2023-01-18T09:04:19.005Z,19.27
2023-01-18T09:06:47.336Z,18.75
2023-01-18T09:09:14.969Z,19.50
2023-01-18T09:11:42.454Z,19.10
2023-01-18T09:14:09.973Z,18.90
2023-01-18T09:16:37.514Z,18.33
2023-01-18T09:19:06.568Z,20.13
2023-01-18T09:21:34.514Z,18.98
2023-01-18T09:24:02.001Z,18.42
2023-01-18T09:26:30.690Z,19.15
2023-01-18T09:28:58.273Z,17.65
2023-01-18T09:31:27.258Z,17.98
2023-01-18T09:34:01.023Z,19.92
2023-01-18T09:36:41.295Z,20.45
2023-01-18T09:39:08.924Z,20.90
2023-01-18T09:41:39.317Z,20.30
2023-01-18T09:44:30.182Z,17.13
2023-01-18T09:47:19.887Z,18.95
2023-01-18T09:49:58.875Z,19.75
2023-01-18T09:53:08.298Z,19.45
2023-01-18T09:56:02.652Z,26.70
2023-01-18T09:58:52.408Z,21.80
2023-01-18T10:01:27.100Z,21.80
2023-01-18T10:04:00.966Z,22.42
2023-01-18T10:06:49.362Z,21.55
2023-01-18T10:09:27.604Z,22.40
2023-01-18T10:11:59.817Z,23.25
2023-01-18T10:14:36.198Z,21.40
2023-01-18T10:17:12.282Z,20.48
2023-01-18T10:19:41.197Z,21.65
2023-01-18T10:22:13.569Z,20.38
2023-01-18T10:24:50.074Z,19.75
2023-01-18T10:27:36.802Z,20.05
2023-01-18T10:30:22.823Z,21.10
2023-01-18T10:32:58.210Z,20.65
2023-01-18T10:35:33.393Z,20.88
2023-01-18T10:38:08.838Z,23.05
2023-01-18T10:40:39.422Z,20.92
2023-01-18T10:43:20.613Z,19.77
2023-01-18T10:50:00.621Z,20.20
2023-01-18T10:52:30.790Z,19.48
2023-01-18T10:55:07.842Z,20.63
2023-01-18T10:57:42.437Z,19.33
2023-01-18T11:00:23.781Z,19.92
2023-01-18T11:02:53.401Z,19.48
2023-01-18T11:05:40.520Z,19.23
2023-01-18T11:08:32.965Z,19.27
2023-01-18T11:11:06.411Z,20.88
2023-01-18T11:13:40.450Z,23.48
2023-01-18T11:16:14.258Z,24.15
2023-01-18T11:19:17.799Z,21.95
2023-01-18T11:21:51.557Z,21.08
2023-01-18T11:24:30.154Z,20.98
2023-01-18T11:26:59.477Z,22.63
2023-01-18T11:29:35.956Z,23.95
2023-01-18T11:32:07.146Z,24.48
2023-01-18T11:34:41.348Z,22.95
2023-01-18T11:37:27.713Z,24.45
2023-01-18T11:39:55.706Z,24.95
2023-01-18T11:42:31.766Z,23.77
2023-01-18T11:45:17.598Z,24.63
2023-01-18T11:47:53.762Z,25.05
2023-01-18T11:50:28.436Z,25.20
2023-01-18T11:53:09.961Z,26.30
2023-01-18T11:55:48.467Z,24.20
2023-01-18T11:58:28.538Z,24.08
2023-01-18T12:01:25.013Z,24.23
2023-01-18T12:03:59.100Z,24.58
2023-01-18T12:06:56.972Z,24.95
2023-01-18T12:09:44.910Z,26.50
2023-01-18T12:12:47.289Z,27.52
2023-01-18T12:15:52.096Z,26.98
2023-01-18T12:18:22.251Z,27.33
2023-01-18T12:21:11.905Z,27.27
2023-01-18T12:24:05.029Z,26.98
2023-01-18T12:26:59.730Z,26.95
2023-01-18T12:29:42.610Z,27.92
2023-01-18T12:32:40.658Z,26.27
2023-01-18T12:35:23.578Z,25.20
2023-01-18T12:38:23.437Z,26.42
2023-01-18T12:40:56.977Z,24.63
2023-01-18T12:43:37.285Z,23.88
2023-01-18T12:46:09.313Z,23.20
2023-01-18T12:48:55.500Z,22.88
2023-01-18T12:51:26.427Z,21.85
2023-01-18T12:54:25.645Z,22.98
2023-01-18T12:56:56.527Z,23.25
2023-01-18T12:59:57.432Z,23.83
2023-01-18T13:02:35.304Z,25.35
2023-01-18T13:05:12.052Z,23.25
2023-01-18T13:07:44.313Z,25.15
2023-01-18T13:10:24.060Z,22.98
2023-01-18T13:12:54.205Z,23.70
2023-01-18T13:15:40.423Z,23.42
2023-01-18T13:18:26.063Z,22.30
2023-01-18T13:21:25.461Z,23.08
2023-01-18T13:24:11.419Z,21.70
2023-01-18T13:26:39.099Z,22.95
2023-01-18T13:29:29.921Z,23.48
2023-01-18T13:31:58.308Z,22.27
2023-01-18T13:34:33.851Z,22.73
2023-01-18T13:37:14.268Z,22.02
2023-01-18T13:39:47.610Z,21.90
2023-01-18T13:42:21.454Z,22.95
2023-01-18T13:44:51.076Z,25.17
2023-01-18T13:47:39.608Z,22.80
2023-01-18T13:50:28.700Z,24.08
2023-01-18T13:53:19.500Z,22.85
2023-01-18T13:55:52.798Z,23.33
2023-01-18T13:58:34.280Z,22.20
2023-01-18T14:01:04.446Z,24.95
2023-01-18T14:03:36.439Z,24.63
2023-01-18T14:06:14.702Z,22.40
2023-01-18T14:08:51.872Z,23.17
2023-01-18T14:11:42.507Z,21.35
2023-01-18T14:14:12.808Z,21.80
2023-01-18T14:17:07.259Z,21.95
2023-01-18T14:19:47.207Z,21.92
2023-01-18T14:22:28.399Z,22.77
2023-01-18T14:24:56.033Z,22.23
2023-01-18T14:27:27.398Z,24.77
2023-01-18T14:30:13.773Z,22.80
2023-01-18T14:32:53.541Z,23.13
2023-01-18T14:35:25.778Z,21.38
2023-01-18T14:38:17.780Z,21.20
2023-01-18T14:40:48.652Z,18.65
2023-01-18T14:43:32.296Z,19.33
2023-01-18T14:46:04.931Z,18.35
2023-01-18T14:48:37.476Z,18.25
2023-01-18T14:51:07.148Z,18.35
2023-01-18T14:53:43.192Z,18.40
2023-01-18T14:56:13.603Z,17.88
2023-01-18T14:59:14.096Z,19.08
2023-01-18T15:01:42.791Z,18.20
2023-01-18T15:04:25.155Z,18.92
2023-01-18T15:07:10.233Z,19.55
2023-01-18T15:09:39.866Z,17.85
2023-01-18T15:12:11.007Z,17.70
2023-01-18T15:14:45.062Z,17.65
2023-01-18T15:17:23.964Z,18.10
2023-01-18T15:19:59.771Z,17.90
2023-01-18T15:22:34.460Z,18.20
2023-01-18T15:25:02.246Z,17.88
2023-01-18T15:27:32.591Z,18.63
2023-01-18T15:30:01.697Z,18.77
2023-01-18T15:32:33.349Z,18.80
2023-01-18T15:35:02.500Z,19.08
2023-01-18T15:37:37.688Z,18.55
2023-01-18T15:40:14.157Z,18.20
2023-01-18T15:42:44.608Z,18.92
2023-01-18T15:45:25.867Z,16.88
2023-01-18T15:48:09.040Z,15.95
2023-01-18T15:50:44.180Z,15.97
2023-01-18T15:53:26.118Z,15.32
2023-01-18T15:55:58.636Z,15.88
2023-01-18T15:58:42.824Z,17.02
2023-01-18T16:01:13.498Z,15.90
2023-01-18T16:03:48.216Z,16.13
2023-01-18T16:06:17.175Z,16.70
2023-01-18T16:09:01.127Z,17.70
2023-01-18T16:11:54.317Z,17.90
2023-01-18T16:14:28.330Z,18.50
2023-01-18T16:17:22.533Z,17.23
2023-01-18T16:22:31.933Z,16.67
2023-01-18T16:25:16.884Z,16.63
2023-01-18T16:27:52.838Z,15.25
2023-01-18T16:30:33.616Z,15.25
2023-01-18T16:33:14.431Z,16.05
2023-01-18T16:35:42.285Z,14.30
2023-01-18T16:38:12.219Z,14.45
2023-01-18T16:40:42.874Z,15.23
2023-01-18T16:43:34.727Z,14.90
2023-01-18T16:46:04.651Z,14.13
2023-01-18T16:48:34.179Z,12.63
2023-01-18T16:51:01.810Z,12.07
2023-01-18T16:53:29.392Z,11.43
2023-01-18T16:55:56.947Z,12.07
2023-01-18T16:58:24.475Z,12.68
2023-01-18T17:00:57.551Z,11.50
2023-01-18T17:03:25.295Z,10.95
2023-01-18T17:05:52.744Z,12.30
2023-01-18T17:08:20.369Z,11.52
2023-01-18T17:10:50.577Z,12.55
2023-01-18T17:13:18.067Z,11.45
2023-01-18T17:15:45.709Z,11.63
2023-01-18T17:18:20.878Z,11.75
2023-01-18T17:20:48.673Z,12.05
2023-01-18T17:23:16.675Z,11.70
2023-01-18T17:25:44.861Z,11.50
2023-01-18T17:28:17.133Z,9.98
2023-01-18T17:30:47.609Z,10.50
2023-01-18T17:33:18.912Z,11.50
2023-01-18T17:35:47.612Z,11.43
2023-01-18T17:38:23.167Z,11.18
2023-01-18T17:40:51.564Z,10.85
2023-01-18T17:43:32.182Z,10.07
2023-01-18T17:46:06.523Z,10.05
2023-01-18T17:48:34.468Z,9.52
2023-01-18T17:51:05.819Z,9.98
2023-01-18T17:53:33.510Z,8.27
2023-01-18T17:56:00.978Z,8.23
2023-01-18T17:58:28.527Z,7.82
2023-01-18T18:00:56.145Z,7.78
2023-01-18T18:03:23.800Z,8.07
2023-01-18T18:05:57.144Z,7.40
2023-01-18T18:08:24.633Z,6.15
2023-01-18T18:10:52.064Z,6.25
2023-01-18T18:13:19.547Z,6.07
2023-01-18T18:15:49.442Z,6.47
2023-01-18T18:18:24.167Z,6.22
2023-01-18T18:20:59.586Z,6.68
2023-01-18T18:23:28.383Z,6.85
2023-01-18T18:25:57.202Z,6.97
2023-01-18T18:28:25.557Z,6.93
2023-01-18T18:30:53.093Z,5.95
2023-01-18T18:33:22.145Z,5.82
2023-01-18T18:35:51.228Z,6.50
2023-01-18T18:38:22.978Z,6.28
2023-01-18T18:40:51.324Z,7.38
2023-01-18T18:43:19.265Z,7.25
2023-01-18T18:45:47.786Z,6.95
2023-01-18T18:48:15.258Z,6.53
2023-01-18T18:50:43.017Z,6.72
2023-01-18T18:53:10.512Z,6.60
2023-01-18T18:55:37.997Z,6.15
2023-01-18T18:58:05.935Z,7.25
2023-01-18T19:00:33.436Z,6.75
2023-01-18T19:03:03.086Z,6.20
2023-01-18T19:05:31.877Z,6.03
2023-01-18T19:08:00.006Z,5.13
2023-01-18T19:10:30.491Z,5.20
2023-01-18T19:12:58.643Z,4.65
2023-01-18T19:15:26.656Z,3.90
2023-01-18T19:17:54.185Z,3.75
2023-01-18T19:20:22.067Z,4.10
2023-01-18T19:22:50.515Z,3.85
2023-01-18T19:25:19.051Z,4.10
2023-01-18T19:27:46.685Z,3.92
2023-01-18T19:30:18.685Z,3.72
2023-01-18T19:32:48.451Z,3.63
2023-01-18T19:35:16.574Z,3.33
2023-01-18T19:37:45.795Z,3.70
2023-01-18T19:40:16.860Z,3.42
2023-01-18T19:42:45.096Z,3.78
2023-01-18T19:45:19.661Z,3.67
2023-01-18T19:47:55.533Z,4.05
2023-01-18T19:50:23.477Z,3.95
2023-01-18T19:52:50.951Z,3.95
2023-01-18T19:55:18.729Z,3.53
2023-01-18T19:57:46.540Z,3.40
2023-01-18T20:00:16.693Z,4.05
2023-01-18T20:02:47.295Z,3.25
2023-01-18T20:05:14.867Z,3.92
2023-01-18T20:07:42.545Z,3.47
2023-01-18T20:10:10.743Z,4.13
2023-01-18T20:12:38.499Z,3.72
2023-01-18T20:15:06.534Z,3.60
2023-01-18T20:17:34.030Z,4.15
2023-01-18T20:20:01.616Z,3.78
2023-01-18T20:22:29.082Z,3.60
2023-01-18T20:24:56.726Z,3.47
2023-01-18T20:27:24.162Z,4.85
2023-01-18T20:29:51.723Z,3.75
2023-01-18T20:32:19.348Z,3.80
2023-01-18T20:34:47.574Z,3.75
2023-01-18T20:37:16.499Z,4.70
2023-01-18T20:39:44.027Z,4.22
2023-01-18T20:42:11.546Z,4.80
2023-01-18T20:44:39.072Z,5.55
2023-01-18T20:47:06.699Z,5.35
2023-01-18T20:49:38.655Z,6.18
2023-01-18T20:52:07.590Z,6.35
2023-01-18T20:54:36.566Z,5.32
2023-01-18T20:57:05.755Z,6.47
2023-01-18T20:59:33.496Z,6.88
2023-01-18T21:02:01.619Z,7.03
2023-01-18T21:04:29.357Z,7.50
2023-01-18T21:06:59.803Z,6.93
2023-01-18T21:09:27.558Z,7.72
2023-01-18T21:11:54.976Z,7.10
2023-01-18T21:14:22.630Z,8.07
2023-01-18T21:16:50.244Z,7.93
2023-01-18T21:19:18.101Z,8.20
2023-01-18T21:21:45.536Z,8.27
2023-01-18T21:24:13.072Z,7.82
2023-01-18T21:26:40.560Z,8.23
2023-01-18T21:29:08.362Z,8.60
2023-01-18T21:31:35.816Z,8.40
2023-01-18T21:34:03.478Z,8.75
2023-01-18T21:36:31.040Z,7.95
2023-01-18T21:38:58.687Z,7.22
2023-01-18T21:41:45.044Z,7.53
2023-01-18T21:44:31.257Z,7.57
2023-01-18T21:46:59.227Z,6.22
2023-01-18T21:50:15.947Z,7.10
2023-01-18T21:52:52.137Z,6.68
2023-01-18T21:55:20.283Z,6.43
2023-01-18T21:58:07.667Z,6.88
2023-01-18T22:00:39.603Z,6.82
2023-01-18T22:03:07.567Z,9.05
2023-01-18T22:05:35.075Z,9.70
2023-01-18T22:08:02.754Z,9.32
2023-01-18T22:10:30.407Z,9.60
2023-01-18T22:12:58.044Z,8.52
2023-01-18T22:15:25.523Z,10.10
2023-01-18T22:17:52.979Z,10.32
2023-01-18T22:20:20.550Z,10.23
2023-01-18T22:22:48.539Z,11.23
2023-01-18T22:25:16.075Z,11.48
2023-01-18T22:27:43.594Z,11.45
2023-01-18T22:30:11.709Z,10.88
2023-01-18T22:32:39.483Z,11.70
2023-01-18T22:35:07.061Z,11.98
2023-01-18T22:37:34.622Z,10.60
2023-01-18T22:40:02.046Z,12.15
2023-01-18T22:42:30.236Z,11.85
2023-01-18T22:44:57.733Z,11.48
2023-01-18T22:47:25.206Z,11.80
2023-01-18T22:49:53.986Z,12.02
2023-01-18T22:52:21.526Z,11.85
2023-01-18T22:54:49.094Z,12.35
2023-01-18T22:57:16.585Z,12.00
2023-01-18T22:59:43.971Z,11.77
2023-01-18T23:02:11.531Z,11.50
2023-01-18T23:04:38.945Z,11.25
2023-01-18T23:07:06.532Z,11.75
2023-01-18T23:09:33.968Z,11.43
2023-01-18T23:12:01.550Z,10.68
2023-01-18T23:14:47.680Z,10.25
2023-01-18T23:17:42.286Z,10.00
2023-01-18T23:20:12.218Z,10.75
2023-01-18T23:22:39.788Z,10.18
2023-01-18T23:25:07.568Z,9.30
2023-01-18T23:27:35.088Z,10.25
2023-01-18T23:30:02.771Z,11.63
2023-01-18T23:32:33.295Z,10.35
2023-01-18T23:35:01.044Z,9.45
2023-01-18T23:37:28.755Z,10.13
2023-01-18T23:40:15.093Z,10.43
2023-01-18T23:43:01.207Z,9.50
2023-01-18T23:45:47.446Z,9.27
2023-01-18T23:48:36.297Z,8.68
2023-01-18T23:51:23.121Z,9.02
2023-01-18T23:54:09.329Z,9.52
2023-01-18T23:56:36.877Z,8.35
2023-01-18T23:59:04.316Z,8.60
